Grand Meadow, Minnesota
Current Conditions -  °F | °C
As of 2:12 PM on Thursday 18 Dec 2014 (Local Time) from KRST Reporting Station
Overcast Overcast  
Wind Chill: 13°   Ceiling: 1400
Heat Index: 20°   Visibility: 7mi
Dew Point: 15°   Wind: 5mph
Humidity: 81%   Direction: 160°SSE
Pressure: 30.22"   Gusts: NA
Location:  43.71°N, 92.57°W
Report Text: KRST 182012Z 16004KT 7SM OVC014 M07/M09 A3022 RMK AO2 T10671094
Loading
Personal Weather Stations






























Interactive Weather Map New forecast layout! Learn more

10-Day Weather Forecast

Advertisements
Track Severe Weather on mobile